Time;durP1;ratioP1;P1;durP2;ratioP2;P2;SDS_P1;SDS_P2;PMS_P1;PMS_P2;Temp;Humidity;BMP_temperature;BMP_pressure;BME280_temperature;BME280_humidity;BME280_pressure;Samples;Min_cycle;Max_cycle;Signal;HPM_P1;HPM_P2
2023/07/15 00:00:13;;;;;;;5.32;2.50;;;23.30;81.00;;;;;;4940051;29;20331;-79
2023/07/15 00:02:40;;;;;;;9.63;2.85;;;23.20;81.40;;;;;;4955513;28;20020;-79
2023/07/15 00:05:17;;;;;;;6.15;2.90;;;23.10;81.90;;;;;;4958817;28;20027;-80
2023/07/15 00:07:43;;;;;;;4.65;2.60;;;23.00;82.30;;;;;;4941606;29;20126;-80
2023/07/15 00:10:08;;;;;;;4.70;2.75;;;22.80;82.40;;;;;;4939925;29;20134;-79
2023/07/15 00:12:34;;;;;;;4.90;2.85;;;22.80;82.50;;;;;;4937584;28;20030;-78
2023/07/15 00:15:00;;;;;;;5.63;2.75;;;22.70;82.70;;;;;;4954667;28;20031;-79
2023/07/15 00:17:25;;;;;;;4.60;3.25;;;22.60;82.90;;;;;;4958745;28;20121;-80
2023/07/15 00:19:54;;;;;;;5.88;2.95;;;22.60;83.20;;;;;;4956139;28;20039;-80
2023/07/15 00:22:19;;;;;;;5.80;2.97;;;22.50;83.60;;;;;;4937861;28;20024;-81
2023/07/15 00:24:46;;;;;;;3.80;2.83;;;22.40;83.80;;;;;;4956881;28;20015;-80
2023/07/15 00:27:11;;;;;;;5.60;2.85;;;22.40;84.00;;;;;;4955463;28;20103;-80
2023/07/15 00:29:37;;;;;;;4.07;2.92;;;22.30;84.10;;;;;;4938668;28;20063;-80
2023/07/15 00:32:04;;;;;;;5.70;3.22;;;22.30;84.40;;;;;;4951482;28;20020;-78
2023/07/15 00:34:30;;;;;;;5.78;3.00;;;22.20;84.50;;;;;;4937855;28;20031;-80
2023/07/15 00:36:56;;;;;;;7.63;3.80;;;22.20;84.80;;;;;;4958251;28;20035;-79
2023/07/15 00:39:22;;;;;;;3.58;2.88;;;22.10;85.10;;;;;;4952285;28;20033;-79
2023/07/15 00:41:47;;;;;;;3.50;2.80;;;22.00;85.10;;;;;;4954616;28;20050;-78
2023/07/15 00:44:16;;;;;;;4.78;3.40;;;22.00;85.20;;;;;;4954334;28;20454;-78
2023/07/15 00:47:21;;;;;;;5.18;3.20;;;21.90;85.40;;;;;;4953470;28;20381;-78
2023/07/15 00:49:48;;;;;;;4.45;2.60;;;21.90;85.20;;;;;;4953010;28;20015;-78
2023/07/15 00:52:16;;;;;;;4.53;2.80;;;21.90;85.10;;;;;;4958700;28;20031;-78
2023/07/15 00:54:45;;;;;;;2.97;2.30;;;21.90;85.00;;;;;;4954096;29;20462;-78
2023/07/15 00:57:14;;;;;;;3.53;2.45;;;21.90;85.40;;;;;;4938946;28;20110;-82
2023/07/15 01:02:09;;;;;;;2.65;1.70;;;21.90;84.20;;;;;;4994300;28;20076;-70
2023/07/15 01:04:35;;;;;;;5.18;2.47;;;21.90;83.60;;;;;;5003563;28;20392;-71
2023/07/15 01:07:01;;;;;;;4.40;2.13;;;21.90;83.30;;;;;;5003964;28;20109;-73
2023/07/15 01:09:27;;;;;;;2.63;1.95;;;22.00;82.80;;;;;;5000116;28;20109;-70
2023/07/15 01:11:54;;;;;;;2.42;1.80;;;21.90;82.70;;;;;;5006364;28;20518;-72
2023/07/15 01:14:19;;;;;;;3.65;1.83;;;21.90;82.60;;;;;;4983425;28;20034;-72
2023/07/15 01:16:47;;;;;;;2.63;1.70;;;21.90;83.20;;;;;;5002753;28;20093;-73
2023/07/15 01:19:18;;;;;;;6.72;1.83;;;22.00;82.60;;;;;;5002678;28;20026;-72
2023/07/15 01:21:49;;;;;;;2.95;1.73;;;21.90;82.50;;;;;;5006345;28;20606;-72
2023/07/15 01:24:15;;;;;;;2.88;1.85;;;21.90;82.60;;;;;;5003940;28;20022;-73
2023/07/15 01:26:40;;;;;;;2.90;1.98;;;21.90;82.50;;;;;;4987247;28;20052;-73
2023/07/15 01:29:06;;;;;;;4.78;2.92;;;21.90;82.70;;;;;;5003000;28;20034;-72
2023/07/15 01:31:32;;;;;;;4.15;2.92;;;21.90;83.40;;;;;;5003685;28;20132;-73
2023/07/15 01:33:57;;;;;;;5.63;2.90;;;21.80;84.80;;;;;;5000243;28;20029;-73
2023/07/15 01:36:24;;;;;;;7.47;3.88;;;21.80;85.70;;;;;;5005275;28;20037;-73
2023/07/15 01:38:50;;;;;;;6.22;4.07;;;21.70;86.50;;;;;;5000554;28;20053;-71
2023/07/15 01:41:16;;;;;;;4.63;3.50;;;21.70;87.60;;;;;;5002622;28;20037;-71
2023/07/15 01:43:41;;;;;;;7.03;3.55;;;21.60;88.10;;;;;;5008194;28;20093;-71
2023/07/15 01:46:07;;;;;;;6.25;3.85;;;21.50;88.80;;;;;;5007398;28;20029;-71
2023/07/15 01:48:33;;;;;;;5.05;3.20;;;21.50;89.30;;;;;;5008491;28;20053;-72
2023/07/15 01:50:58;;;;;;;5.53;3.00;;;21.40;89.80;;;;;;5012107;28;20108;-72
2023/07/15 01:53:24;;;;;;;4.35;3.40;;;21.30;90.10;;;;;;5009276;28;20488;-71
2023/07/15 01:55:50;;;;;;;5.45;3.67;;;21.20;90.20;;;;;;5008633;28;20040;-71
2023/07/15 01:58:16;;;;;;;5.63;3.70;;;21.10;90.40;;;;;;5002736;28;20018;-71
2023/07/15 02:00:42;;;;;;;8.75;3.08;;;21.00;90.60;;;;;;4989912;28;20030;-71
2023/07/15 02:03:08;;;;;;;3.67;2.88;;;21.00;90.70;;;;;;4988626;28;20812;-72
2023/07/15 02:05:34;;;;;;;8.98;3.10;;;20.90;90.80;;;;;;5009640;28;20663;-72
2023/07/15 02:07:59;;;;;;;5.90;3.30;;;20.80;90.80;;;;;;5008974;28;20033;-71
2023/07/15 02:10:27;;;;;;;6.18;3.20;;;20.80;90.80;;;;;;5008062;28;20455;-71
2023/07/15 02:12:52;;;;;;;12.43;3.53;;;20.70;90.90;;;;;;5013465;28;20136;-71
2023/07/15 02:15:18;;;;;;;6.72;3.30;;;20.70;91.00;;;;;;5010865;28;20142;-72
2023/07/15 02:17:45;;;;;;;5.13;2.83;;;20.60;91.20;;;;;;5008767;28;20030;-72
2023/07/15 02:20:12;;;;;;;10.20;3.38;;;20.60;91.30;;;;;;5009531;28;20038;-72
2023/07/15 02:22:38;;;;;;;4.55;3.03;;;20.50;91.30;;;;;;5009306;28;20022;-72
2023/07/15 02:25:04;;;;;;;3.58;2.75;;;20.50;91.30;;;;;;4991365;28;20508;-72
2023/07/15 02:27:31;;;;;;;6.50;3.42;;;20.50;91.30;;;;;;5006100;28;20022;-72
2023/07/15 02:29:56;;;;;;;3.85;2.83;;;20.50;91.50;;;;;;5012909;28;20045;-72
2023/07/15 02:32:39;;;;;;;5.00;2.63;;;20.50;91.40;;;;;;5004749;28;20057;-72
2023/07/15 02:35:10;;;;;;;5.93;2.43;;;20.50;91.10;;;;;;5009044;28;20026;-72
2023/07/15 02:37:37;;;;;;;3.67;2.50;;;20.50;90.90;;;;;;5007850;28;20022;-72
2023/07/15 02:40:04;;;;;;;4.22;2.13;;;20.50;90.60;;;;;;5006404;28;20021;-72
2023/07/15 02:42:33;;;;;;;10.52;2.20;;;20.50;90.40;;;;;;4989555;28;20049;-72
2023/07/15 02:45:03;;;;;;;5.85;2.13;;;20.50;90.20;;;;;;4989700;28;20034;-73
2023/07/15 02:47:30;;;;;;;5.32;1.90;;;20.60;90.10;;;;;;5006686;28;20018;-73
2023/07/15 02:49:57;;;;;;;3.40;1.85;;;20.60;89.80;;;;;;5009218;28;20030;-72
2023/07/15 02:52:23;;;;;;;2.88;1.90;;;20.70;89.40;;;;;;4992168;28;20483;-72
2023/07/15 02:54:49;;;;;;;3.65;1.75;;;20.70;88.80;;;;;;4987810;28;20022;-72
2023/07/15 02:57:14;;;;;;;2.88;1.90;;;20.70;88.20;;;;;;4989396;28;20117;-71
2023/07/15 02:59:40;;;;;;;3.85;2.00;;;20.80;88.00;;;;;;5007579;28;20523;-71
2023/07/15 03:02:06;;;;;;;2.33;1.80;;;20.80;88.00;;;;;;5009619;28;20044;-72
2023/07/15 03:04:32;;;;;;;2.72;2.20;;;20.80;87.80;;;;;;5005943;28;20076;-71
2023/07/15 03:06:58;;;;;;;3.58;1.90;;;20.80;88.00;;;;;;5007307;28;20029;-72
2023/07/15 03:09:25;;;;;;;2.28;1.75;;;20.80;87.80;;;;;;5007117;28;20099;-72
2023/07/15 03:11:50;;;;;;;3.63;1.65;;;20.90;87.50;;;;;;5007673;28;20048;-72
2023/07/15 03:14:16;;;;;;;3.08;1.60;;;20.90;87.40;;;;;;4989006;28;20025;-72
2023/07/15 03:16:41;;;;;;;2.47;1.90;;;20.90;87.20;;;;;;4989258;28;20034;-72
2023/07/15 03:19:07;;;;;;;3.63;2.00;;;20.90;87.10;;;;;;5006461;28;20396;-72
2023/07/15 03:21:33;;;;;;;3.70;1.73;;;21.00;87.00;;;;;;5006809;28;20030;-72
2023/07/15 03:23:59;;;;;;;3.75;2.15;;;20.90;87.10;;;;;;5007348;28;20087;-72
2023/07/15 03:26:24;;;;;;;3.72;2.05;;;20.90;87.20;;;;;;5004180;28;20045;-72
2023/07/15 03:28:50;;;;;;;2.47;1.80;;;20.90;87.30;;;;;;5003982;28;20033;-71
2023/07/15 03:31:15;;;;;;;4.88;2.20;;;20.90;87.30;;;;;;5006345;28;20451;-72
2023/07/15 03:33:41;;;;;;;4.97;2.15;;;20.90;87.60;;;;;;5003472;28;20030;-71
2023/07/15 03:36:07;;;;;;;3.17;1.70;;;20.90;87.70;;;;;;4987717;28;20423;-72
2023/07/15 03:38:32;;;;;;;3.88;2.28;;;20.90;87.60;;;;;;4994933;28;20031;-71
2023/07/15 03:40:58;;;;;;;2.83;1.95;;;20.90;87.60;;;;;;5005277;28;20397;-72
2023/07/15 03:43:24;;;;;;;4.97;2.83;;;20.90;87.80;;;;;;4983875;28;20492;-71
2023/07/15 03:45:49;;;;;;;7.80;2.80;;;20.80;89.00;;;;;;4999952;28;20022;-71
2023/07/15 03:48:15;;;;;;;7.55;2.97;;;20.80;89.60;;;;;;5003957;28;20144;-71
2023/07/15 03:50:44;;;;;;;3.70;2.88;;;20.70;90.30;;;;;;5005023;28;20474;-72
2023/07/15 03:53:09;;;;;;;7.05;3.13;;;20.70;90.50;;;;;;5001705;28;20468;-72
2023/07/15 03:55:37;;;;;;;5.78;2.90;;;20.70;90.90;;;;;;4988449;28;20045;-72
2023/07/15 03:58:03;;;;;;;5.95;3.55;;;20.60;91.30;;;;;;4985146;28;20404;-72
2023/07/15 04:00:29;;;;;;;7.55;2.90;;;20.60;91.20;;;;;;5006433;28;20077;-72
2023/07/15 04:02:55;;;;;;;5.47;3.13;;;20.50;91.30;;;;;;4988743;28;20025;-72
2023/07/15 04:05:20;;;;;;;6.60;3.45;;;20.50;91.50;;;;;;4988784;28;20533;-72
2023/07/15 04:07:47;;;;;;;4.20;3.00;;;20.50;91.80;;;;;;5007641;28;20029;-72
2023/07/15 04:10:13;;;;;;;12.15;3.08;;;20.40;91.90;;;;;;5003589;28;20049;-72
2023/07/15 04:12:39;;;;;;;4.90;3.17;;;20.40;92.00;;;;;;5006760;28;20029;-72
2023/07/15 04:15:05;;;;;;;3.95;2.53;;;20.40;92.30;;;;;;5002937;28;20033;-71
2023/07/15 04:17:31;;;;;;;6.53;3.22;;;20.30;92.50;;;;;;4988930;28;20030;-72
2023/07/15 04:19:56;;;;;;;4.15;2.22;;;20.30;92.50;;;;;;5008012;28;20069;-72
2023/07/15 04:22:23;;;;;;;4.55;3.10;;;20.30;92.60;;;;;;5008154;28;20030;-72
2023/07/15 04:24:49;;;;;;;8.60;3.00;;;20.30;92.60;;;;;;5006053;28;20041;-72
2023/07/15 04:27:14;;;;;;;3.33;2.65;;;20.30;92.50;;;;;;5005443;28;20397;-72
2023/07/15 04:29:40;;;;;;;5.15;2.80;;;20.30;92.30;;;;;;5005986;28;20038;-72
2023/07/15 04:32:06;;;;;;;5.38;2.60;;;20.30;92.20;;;;;;5004838;28;20101;-72
2023/07/15 04:34:31;;;;;;;3.88;2.13;;;20.40;92.00;;;;;;5009665;28;20026;-72
2023/07/15 04:36:57;;;;;;;3.47;2.50;;;20.40;91.70;;;;;;5006045;28;20025;-71
2023/07/15 04:39:25;;;;;;;2.60;2.13;;;20.50;91.30;;;;;;5007734;28;20021;-71
2023/07/15 04:41:51;;;;;;;5.85;2.45;;;20.70;90.50;;;;;;5007716;28;20025;-72
2023/07/15 04:44:17;;;;;;;4.30;2.33;;;20.90;90.40;;;;;;5007611;28;20025;-71
2023/07/15 04:46:42;;;;;;;2.97;2.15;;;21.00;90.00;;;;;;5008706;28;20037;-71
2023/07/15 04:49:09;;;;;;;5.68;2.65;;;21.10;89.50;;;;;;5003520;28;20037;-71
2023/07/15 04:51:35;;;;;;;2.75;2.08;;;21.20;88.60;;;;;;5003163;28;20628;-71
2023/07/15 04:54:00;;;;;;;5.72;1.98;;;21.40;88.00;;;;;;5008457;28;20064;-73
2023/07/15 04:56:26;;;;;;;2.67;1.95;;;21.50;87.80;;;;;;5006879;28;20021;-73
2023/07/15 04:58:52;;;;;;;4.95;2.03;;;21.70;86.90;;;;;;5007733;28;20022;-72
2023/07/15 05:01:18;;;;;;;4.22;1.75;;;21.80;85.70;;;;;;5009868;28;20040;-73
2023/07/15 05:03:44;;;;;;;2.30;1.70;;;21.90;85.30;;;;;;4989500;28;20034;-73
2023/07/15 05:06:10;;;;;;;3.55;2.00;;;22.10;85.00;;;;;;5007401;28;20040;-73
2023/07/15 05:08:37;;;;;;;4.40;2.17;;;22.30;84.70;;;;;;5010334;28;20408;-73
2023/07/15 05:11:02;;;;;;;3.70;1.88;;;22.50;84.20;;;;;;5007904;28;20484;-73
2023/07/15 05:13:28;;;;;;;4.15;1.95;;;22.60;84.00;;;;;;5005232;28;20062;-73
2023/07/15 05:15:54;;;;;;;3.20;2.20;;;22.80;83.40;;;;;;5005850;28;20495;-73
2023/07/15 05:18:19;;;;;;;7.40;2.22;;;22.90;82.90;;;;;;5009199;28;20025;-73
2023/07/15 05:20:45;;;;;;;5.60;2.28;;;23.10;82.00;;;;;;5000899;28;20026;-71
2023/07/15 05:23:11;;;;;;;4.43;2.95;;;23.20;81.10;;;;;;5001308;28;20084;-72
2023/07/15 05:25:37;;;;;;;6.03;3.22;;;23.30;83.00;;;;;;4987312;28;20038;-71
2023/07/15 05:28:03;;;;;;;5.53;2.97;;;23.40;84.50;;;;;;5006815;28;20468;-71
2023/07/15 05:30:29;;;;;;;6.88;2.88;;;23.60;85.30;;;;;;4995102;28;20030;-71
2023/07/15 05:32:54;;;;;;;5.22;3.35;;;23.60;85.60;;;;;;4990851;28;20030;-72
2023/07/15 05:35:20;;;;;;;7.20;3.53;;;23.60;85.60;;;;;;5005777;28;20044;-72
2023/07/15 05:37:46;;;;;;;6.72;3.58;;;23.70;86.00;;;;;;5002510;28;20056;-71
2023/07/15 05:40:12;;;;;;;5.65;3.38;;;23.70;86.00;;;;;;4988362;28;20033;-73
2023/07/15 05:42:41;;;;;;;5.35;3.22;;;23.70;86.20;;;;;;4992283;28;20076;-72
2023/07/15 05:45:08;;;;;;;7.30;3.42;;;23.80;86.40;;;;;;5007672;28;20073;-74
2023/07/15 05:47:34;;;;;;;6.53;3.20;;;23.80;86.50;;;;;;5008422;28;20337;-73
2023/07/15 05:50:01;;;;;;;4.80;3.03;;;23.90;86.80;;;;;;5009267;28;20025;-72
2023/07/15 05:52:27;;;;;;;5.53;3.30;;;24.00;86.70;;;;;;5005632;28;20021;-74
2023/07/15 05:54:53;;;;;;;3.35;2.47;;;24.10;86.30;;;;;;5006966;28;20025;-73
2023/07/15 05:57:18;;;;;;;4.65;2.97;;;24.10;86.30;;;;;;4990083;28;20120;-73
2023/07/15 05:59:45;;;;;;;3.85;2.63;;;24.10;86.30;;;;;;5004850;28;20023;-73
2023/07/15 06:02:10;;;;;;;5.53;3.08;;;24.20;86.20;;;;;;4984926;28;20389;-73
2023/07/15 06:04:36;;;;;;;3.85;2.63;;;24.20;86.10;;;;;;5001608;28;20036;-73
2023/07/15 06:07:02;;;;;;;5.90;2.72;;;24.30;86.30;;;;;;5007752;28;20554;-72
2023/07/15 06:09:27;;;;;;;4.57;2.63;;;24.30;85.80;;;;;;5003621;28;20588;-72
2023/07/15 06:11:53;;;;;;;3.60;2.40;;;24.40;85.80;;;;;;4993600;28;20113;-72
2023/07/15 06:14:19;;;;;;;6.35;3.53;;;24.50;85.90;;;;;;5010359;28;20369;-76
2023/07/15 06:16:45;;;;;;;4.10;2.70;;;24.60;85.90;;;;;;5011716;28;20037;-74
2023/07/15 06:19:10;;;;;;;8.70;4.38;;;24.60;85.70;;;;;;4998479;28;20033;-75
2023/07/15 06:21:36;;;;;;;6.03;3.35;;;24.70;85.50;;;;;;4996426;28;20053;-75
2023/07/15 06:24:03;;;;;;;5.38;3.80;;;24.80;85.40;;;;;;4995135;28;20032;-75
2023/07/15 06:26:29;;;;;;;6.90;3.90;;;24.90;85.20;;;;;;5010893;28;20028;-75
2023/07/15 06:28:54;;;;;;;7.88;4.28;;;25.00;85.30;;;;;;5015072;28;20057;-75
2023/07/15 06:31:20;;;;;;;8.68;5.22;;;25.00;85.20;;;;;;5015382;28;20042;-75
2023/07/15 06:33:47;;;;;;;6.15;3.20;;;25.10;84.90;;;;;;4998461;28;20113;-75
2023/07/15 06:36:13;;;;;;;7.95;3.92;;;25.20;84.80;;;;;;5000612;28;20040;-75
2023/07/15 06:38:40;;;;;;;11.38;4.57;;;25.30;84.60;;;;;;5017891;28;20018;-75
2023/07/15 06:41:06;;;;;;;5.65;2.97;;;25.40;83.60;;;;;;4994213;28;20030;-75
2023/07/15 06:43:31;;;;;;;7.95;3.25;;;25.50;83.00;;;;;;5015380;28;20033;-75
2023/07/15 06:45:57;;;;;;;10.00;2.90;;;25.60;82.30;;;;;;4996914;28;20133;-75
2023/07/15 06:48:23;;;;;;;7.93;2.53;;;25.80;81.40;;;;;;5005798;28;20026;-75
2023/07/15 06:50:48;;;;;;;3.40;2.60;;;26.00;80.00;;;;;;5000247;28;20038;-75
2023/07/15 06:53:14;;;;;;;5.22;2.72;;;26.10;78.60;;;;;;5008211;28;20485;-75
2023/07/15 06:55:40;;;;;;;5.88;2.67;;;26.30;78.00;;;;;;5010046;28;20428;-76
2023/07/15 06:58:06;;;;;;;4.03;2.03;;;26.50;77.50;;;;;;5012702;28;20036;-75
2023/07/15 07:00:32;;;;;;;2.88;2.00;;;26.60;77.10;;;;;;4998369;28;20076;-73
2023/07/15 07:03:01;;;;;;;3.22;2.20;;;26.80;77.40;;;;;;5002899;28;20056;-74
2023/07/15 07:05:27;;;;;;;4.25;2.00;;;27.00;76.20;;;;;;5007570;28;20380;-73
2023/07/15 07:07:54;;;;;;;4.68;2.40;;;27.10;75.60;;;;;;5002126;28;20036;-76
2023/07/15 07:10:20;;;;;;;3.33;2.28;;;27.20;75.30;;;;;;5019852;28;20060;-73
2023/07/15 07:12:46;;;;;;;3.88;2.20;;;27.40;74.90;;;;;;5019673;28;20034;-74
2023/07/15 07:15:12;;;;;;;3.15;2.50;;;27.50;74.30;;;;;;5002792;28;20546;-74
2023/07/15 07:17:38;;;;;;;6.10;2.55;;;27.60;74.10;;;;;;5019805;28;20018;-74
2023/07/15 07:20:04;;;;;;;2.65;1.90;;;27.70;73.50;;;;;;5020352;28;20391;-72
2023/07/15 07:22:30;;;;;;;4.70;2.00;;;27.70;72.70;;;;;;5020792;28;20029;-73
2023/07/15 07:24:57;;;;;;;4.03;2.10;;;27.80;72.00;;;;;;5002780;28;20026;-73
2023/07/15 07:27:23;;;;;;;4.18;2.30;;;27.90;71.30;;;;;;5020261;28;20064;-73
2023/07/15 07:29:48;;;;;;;2.15;1.88;;;28.00;71.20;;;;;;5020555;28;20026;-73
2023/07/15 07:32:14;;;;;;;4.03;2.15;;;28.00;70.80;;;;;;5020501;28;20026;-75
2023/07/15 07:34:39;;;;;;;3.00;2.42;;;28.10;70.40;;;;;;5019725;28;20030;-72
2023/07/15 07:37:05;;;;;;;3.00;2.08;;;28.10;70.20;;;;;;5007287;28;20388;-73
2023/07/15 07:39:31;;;;;;;3.05;2.13;;;28.20;69.50;;;;;;5020462;28;20050;-74
2023/07/15 07:41:56;;;;;;;8.38;2.08;;;28.30;69.90;;;;;;5018942;28;20018;-73
2023/07/15 07:44:22;;;;;;;2.95;2.65;;;28.30;70.40;;;;;;5001266;28;20370;-73
2023/07/15 07:46:48;;;;;;;2.65;2.17;;;28.40;70.70;;;;;;5018418;28;20032;-73
2023/07/15 07:49:14;;;;;;;3.65;1.80;;;28.40;71.20;;;;;;5017947;28;20096;-73
2023/07/15 07:51:40;;;;;;;4.20;2.30;;;28.50;69.50;;;;;;5000793;28;20093;-73
2023/07/15 07:54:06;;;;;;;3.35;2.17;;;28.70;67.60;;;;;;5002597;28;20037;-74
2023/07/15 07:56:31;;;;;;;3.05;1.75;;;28.70;68.00;;;;;;4999899;28;20508;-73
2023/07/15 07:59:00;;;;;;;3.35;2.03;;;28.70;68.10;;;;;;5000940;28;20116;-73
2023/07/15 08:01:27;;;;;;;2.85;2.40;;;28.80;68.10;;;;;;5003402;28;20053;-74
2023/07/15 08:03:55;;;;;;;2.65;2.05;;;28.80;67.60;;;;;;5014316;28;20029;-73
2023/07/15 08:06:22;;;;;;;3.70;2.13;;;28.90;67.80;;;;;;5013129;28;20084;-73
2023/07/15 08:08:47;;;;;;;2.15;1.90;;;29.00;66.70;;;;;;5020809;28;20022;-75
2023/07/15 08:11:13;;;;;;;4.72;2.20;;;29.10;66.50;;;;;;5019318;28;20508;-74
2023/07/15 08:13:39;;;;;;;6.03;2.17;;;29.10;66.30;;;;;;5010481;28;20036;-74
2023/07/15 08:16:05;;;;;;;1.95;1.75;;;29.30;65.80;;;;;;5018512;28;20033;-75
2023/07/15 08:18:31;;;;;;;3.20;2.13;;;29.40;65.30;;;;;;5001350;28;20101;-74
2023/07/15 08:20:57;;;;;;;4.18;1.92;;;29.50;65.00;;;;;;5001702;28;20021;-74
2023/07/15 08:23:22;;;;;;;2.67;1.88;;;29.60;63.50;;;;;;5019051;28;20048;-74
2023/07/15 08:25:48;;;;;;;7.22;2.28;;;29.80;63.70;;;;;;5007964;28;20036;-74
2023/07/15 08:28:13;;;;;;;4.93;3.00;;;29.90;63.80;;;;;;5018172;28;20433;-74
2023/07/15 08:30:39;;;;;;;2.88;1.83;;;30.00;63.60;;;;;;5015660;28;20050;-75
2023/07/15 08:33:06;;;;;;;4.43;2.30;;;30.10;63.20;;;;;;4995675;28;20542;-74
2023/07/15 08:35:33;;;;;;;3.10;1.92;;;30.20;63.30;;;;;;5002647;28;20033;-74
2023/07/15 08:37:59;;;;;;;2.75;2.13;;;30.30;63.60;;;;;;5020541;28;20025;-74
2023/07/15 08:40:25;;;;;;;3.08;2.63;;;30.40;62.60;;;;;;5022393;28;20030;-74
2023/07/15 08:42:51;;;;;;;3.38;2.00;;;30.60;62.70;;;;;;5016369;28;20026;-74
2023/07/15 08:45:18;;;;;;;6.72;2.60;;;30.60;62.90;;;;;;5018467;28;20444;-75
2023/07/15 08:47:44;;;;;;;3.13;2.10;;;30.80;62.60;;;;;;5000917;28;20022;-75
2023/07/15 08:50:15;;;;;;;2.95;2.08;;;30.80;62.50;;;;;;5018429;28;20025;-75
2023/07/15 08:52:43;;;;;;;2.63;2.17;;;30.90;62.50;;;;;;4998888;28;20022;-74
2023/07/15 08:55:09;;;;;;;3.20;2.00;;;30.90;62.70;;;;;;5004606;28;20396;-75
2023/07/15 08:57:35;;;;;;;2.60;1.90;;;31.00;62.00;;;;;;5018836;28;20040;-74
2023/07/15 09:00:07;;;;;;;5.10;2.28;;;31.00;62.10;;;;;;5001271;28;20109;-74
2023/07/15 09:02:37;;;;;;;4.53;1.95;;;31.10;61.20;;;;;;5017566;28;20049;-74
2023/07/15 09:05:05;;;;;;;2.92;1.98;;;31.20;60.90;;;;;;5018170;28;20018;-74
2023/07/15 09:07:31;;;;;;;2.63;2.10;;;31.30;61.10;;;;;;4995900;28;20090;-74
2023/07/15 09:10:05;;;;;;;2.67;2.15;;;31.40;61.00;;;;;;5017644;28;20055;-76
2023/07/15 09:12:31;;;;;;;3.72;2.35;;;31.50;60.00;;;;;;4992169;28;20060;-76
2023/07/15 09:14:58;;;;;;;1.98;1.77;;;31.70;60.10;;;;;;5010284;28;20097;-76
2023/07/15 09:17:26;;;;;;;4.53;2.08;;;31.70;60.00;;;;;;5006818;28;20026;-76
2023/07/15 09:19:52;;;;;;;3.58;2.10;;;31.80;59.90;;;;;;5011177;28;20105;-77
2023/07/15 09:22:18;;;;;;;4.45;2.08;;;31.90;59.20;;;;;;5007300;28;20065;-76
2023/07/15 09:24:44;;;;;;;4.18;2.15;;;31.80;59.60;;;;;;5012089;28;20109;-76
2023/07/15 09:27:14;;;;;;;5.22;2.10;;;31.90;59.70;;;;;;5008836;28;20085;-76
2023/07/15 09:29:48;;;;;;;4.32;1.80;;;31.90;57.90;;;;;;5009055;28;20037;-75
2023/07/15 09:32:22;;;;;;;2.03;1.75;;;32.10;57.70;;;;;;5011839;28;21027;-77
2023/07/15 09:34:52;;;;;;;2.33;2.00;;;32.10;56.90;;;;;;4994289;28;20477;-77
2023/07/15 09:37:36;;;;;;;3.58;2.15;;;32.10;56.70;;;;;;5009309;28;20021;-77
2023/07/15 09:40:07;;;;;;;3.13;2.22;;;32.10;56.80;;;;;;5010766;28;20061;-77
2023/07/15 09:42:55;;;;;;;2.42;1.83;;;32.20;56.60;;;;;;5007819;28;20045;-77
2023/07/15 09:45:31;;;;;;;4.05;2.10;;;32.30;56.90;;;;;;4983086;28;20056;-77
2023/07/15 09:47:57;;;;;;;2.90;1.90;;;32.40;56.40;;;;;;5007081;28;20025;-77
2023/07/15 09:50:24;;;;;;;2.80;2.35;;;32.40;56.40;;;;;;5011985;28;20029;-77
2023/07/15 09:52:54;;;;;;;3.78;2.03;;;32.30;56.40;;;;;;5007212;28;20030;-78
2023/07/15 09:55:23;;;;;;;2.90;1.95;;;32.30;56.50;;;;;;5009766;28;20110;-77
2023/07/15 09:58:04;;;;;;;5.35;2.58;;;32.40;56.20;;;;;;5011459;28;20023;-75
2023/07/15 10:00:34;;;;;;;2.97;2.25;;;32.40;56.80;;;;;;5006963;28;20057;-76
2023/07/15 10:03:02;;;;;;;6.78;2.92;;;32.50;55.90;;;;;;5007665;28;20018;-75
2023/07/15 10:05:32;;;;;;;4.65;2.88;;;32.50;56.00;;;;;;5011611;28;20162;-76
2023/07/15 10:07:58;;;;;;;4.05;2.75;;;32.60;55.50;;;;;;5009134;28;20396;-77
2023/07/15 10:10:24;;;;;;;3.90;2.15;;;32.60;55.70;;;;;;5010919;28;20030;-75
2023/07/15 10:12:50;;;;;;;2.80;2.13;;;32.60;55.70;;;;;;5010034;28;20022;-77
2023/07/15 10:15:17;;;;;;;2.42;1.77;;;32.60;55.80;;;;;;5012717;28;20026;-76
2023/07/15 10:17:46;;;;;;;2.63;1.98;;;32.60;55.60;;;;;;5009892;28;20036;-76
2023/07/15 10:20:15;;;;;;;2.60;2.10;;;32.60;55.40;;;;;;5009862;28;20029;-77
2023/07/15 10:22:42;;;;;;;2.83;2.20;;;32.70;55.20;;;;;;5010919;28;20053;-76
2023/07/15 10:25:09;;;;;;;2.83;2.00;;;32.70;55.20;;;;;;5013625;28;20030;-77
2023/07/15 10:27:36;;;;;;;2.55;2.20;;;32.90;54.60;;;;;;5009396;28;20040;-77
2023/07/15 10:30:28;;;;;;;3.13;2.20;;;32.90;54.80;;;;;;5012590;28;20041;-77
2023/07/15 10:33:03;;;;;;;2.83;2.30;;;32.90;54.40;;;;;;5005552;28;20057;-76
2023/07/15 10:35:42;;;;;;;4.38;2.65;;;32.90;54.40;;;;;;5007649;28;20034;-77
2023/07/15 10:38:29;;;;;;;3.63;1.90;;;33.00;53.90;;;;;;5014760;28;20021;-76
2023/07/15 10:40:58;;;;;;;3.22;2.03;;;33.00;54.10;;;;;;5016072;28;20558;-77
2023/07/15 10:43:35;;;;;;;3.53;1.90;;;33.10;54.00;;;;;;5009570;28;20025;-77
2023/07/15 10:46:06;;;;;;;3.05;2.00;;;33.10;54.40;;;;;;5014195;28;20033;-76
2023/07/15 10:48:33;;;;;;;3.75;2.22;;;33.10;53.90;;;;;;5010652;28;20649;-77
2023/07/15 10:51:07;;;;;;;6.00;3.17;;;33.10;54.40;;;;;;5013587;28;20045;-76
2023/07/15 10:53:34;;;;;;;2.90;2.60;;;33.10;54.40;;;;;;5011104;28;20065;-78
2023/07/15 10:56:06;;;;;;;3.55;2.33;;;33.10;53.90;;;;;;5015970;28;20040;-77
2023/07/15 10:58:33;;;;;;;4.82;2.60;;;33.20;53.40;;;;;;5011827;28;20033;-77
2023/07/15 11:01:01;;;;;;;3.03;2.50;;;33.20;53.30;;;;;;5009408;28;20069;-77
2023/07/15 11:03:28;;;;;;;4.55;2.45;;;33.10;53.40;;;;;;5014900;28;20021;-77
2023/07/15 11:05:58;;;;;;;2.95;2.40;;;33.10;54.10;;;;;;5009479;28;20095;-76
2023/07/15 11:08:24;;;;;;;4.28;1.90;;;33.20;54.10;;;;;;5009804;28;20033;-77
2023/07/15 11:11:00;;;;;;;2.13;1.75;;;33.20;54.40;;;;;;5013635;28;20037;-77
2023/07/15 11:13:26;;;;;;;4.15;2.17;;;33.20;54.20;;;;;;5005558;28;20488;-77
2023/07/15 11:15:52;;;;;;;3.25;1.75;;;33.40;54.20;;;;;;5008250;28;20026;-77
2023/07/15 11:18:23;;;;;;;4.18;1.95;;;33.50;53.10;;;;;;5014106;28;20088;-77
2023/07/15 11:20:51;;;;;;;4.95;1.88;;;33.50;52.80;;;;;;5008353;28;20030;-77
2023/07/15 11:23:18;;;;;;;2.38;1.90;;;33.60;52.20;;;;;;5005664;28;20030;-77
2023/07/15 11:25:44;;;;;;;1.88;1.65;;;33.70;51.80;;;;;;5013475;28;20030;-77
2023/07/15 11:28:11;;;;;;;2.20;2.00;;;33.80;52.20;;;;;;5014840;28;20034;-78
2023/07/15 11:30:38;;;;;;;3.97;2.30;;;33.80;52.30;;;;;;5012267;28;20060;-77
2023/07/15 11:33:05;;;;;;;3.25;1.90;;;33.70;52.40;;;;;;5013126;28;20030;-77
2023/07/15 11:35:35;;;;;;;4.65;2.28;;;33.60;52.40;;;;;;5015445;28;20030;-76
2023/07/15 11:38:27;;;;;;;3.47;2.22;;;33.50;52.70;;;;;;5010437;28;20026;-76
2023/07/15 11:40:57;;;;;;;3.08;2.53;;;33.60;52.80;;;;;;5013872;28;20041;-77
2023/07/15 11:43:25;;;;;;;4.53;2.15;;;33.70;52.60;;;;;;5014500;28;20405;-78
2023/07/15 11:45:56;;;;;;;2.10;1.83;;;33.70;52.60;;;;;;5009198;28;20033;-77
2023/07/15 11:48:26;;;;;;;2.70;2.25;;;33.70;52.60;;;;;;5009937;28;20124;-76
2023/07/15 11:50:56;;;;;;;2.58;1.83;;;33.80;52.10;;;;;;5026033;28;20010;-78
2023/07/15 11:53:23;;;;;;;2.28;1.98;;;33.80;52.10;;;;;;5019495;28;20022;-76
2023/07/15 11:55:49;;;;;;;3.47;1.80;;;33.80;52.10;;;;;;5010197;28;20038;-77
2023/07/15 11:58:53;;;;;;;2.42;2.22;;;33.90;51.40;;;;;;5012032;28;20036;-77
2023/07/15 12:01:23;;;;;;;;;;;34.00;51.00;;;;;;5010756;28;20089;-77
2023/07/15 12:03:49;;;;;;;2.42;2.20;;;34.00;51.30;;;;;;5011126;28;19952;-78
2023/07/15 12:06:18;;;;;;;2.90;2.10;;;34.10;51.70;;;;;;5013463;28;20048;-77
2023/07/15 12:09:01;;;;;;;2.05;1.90;;;34.10;51.60;;;;;;5013273;28;20028;-77
2023/07/15 12:11:28;;;;;;;2.88;2.40;;;34.20;51.60;;;;;;5011794;28;20397;-77
2023/07/15 12:13:53;;;;;;;3.58;2.13;;;34.30;51.40;;;;;;5016938;28;20519;-77
2023/07/15 12:16:23;;;;;;;2.00;1.80;;;34.30;51.50;;;;;;5013998;28;20036;-78
2023/07/15 12:18:49;;;;;;;3.88;2.15;;;34.30;50.70;;;;;;5017865;28;20033;-75
2023/07/15 12:21:15;;;;;;;2.67;1.80;;;34.30;50.70;;;;;;5019612;28;20109;-77
2023/07/15 12:23:43;;;;;;;2.53;1.70;;;34.30;51.30;;;;;;5017278;28;20070;-77
2023/07/15 12:26:10;;;;;;;2.45;1.83;;;34.40;49.90;;;;;;5023656;28;20033;-77
2023/07/15 12:28:36;;;;;;;4.72;1.92;;;34.50;49.10;;;;;;5016659;28;20060;-77
2023/07/15 12:31:02;;;;;;;3.35;2.10;;;34.50;49.40;;;;;;5029974;28;20005;-77
2023/07/15 12:33:31;;;;;;;3.05;2.00;;;34.60;49.70;;;;;;5033942;28;20030;-77
2023/07/15 12:35:56;;;;;;;2.08;1.88;;;34.60;49.80;;;;;;5026552;28;20053;-78
2023/07/15 12:38:22;;;;;;;2.42;2.03;;;34.60;49.60;;;;;;5020137;28;20037;-78
2023/07/15 12:40:48;;;;;;;3.33;2.15;;;34.60;49.80;;;;;;5016865;28;20033;-78
2023/07/15 12:43:14;;;;;;;1.95;1.75;;;34.60;49.80;;;;;;4949670;28;20122;-78
2023/07/15 12:45:41;;;;;;;2.25;2.05;;;34.60;49.80;;;;;;5042130;28;20018;-77
2023/07/15 12:48:07;;;;;;;2.40;2.00;;;34.60;49.40;;;;;;5034183;28;20038;-77
2023/07/15 12:50:32;;;;;;;3.78;1.77;;;34.50;49.00;;;;;;5031525;28;20056;-78